»·PEaware :: SAS225 LOWI-ENAT

SAS225 :: LOWI-ENAT

FLIGHT INFORMATION

Flight Status: Arrived
Operator:
SAS
More flights by this operator :: More flights under this callsign
Pilot: Kenny J. (11300)
Aircraft: DEHAVILLAND DASH 8 400
(DH8D)
More flights by this aircraft type
Origin: LOWI Innsbruck
Austria
Destination: ENAT Alta
Norway
More flights between these airports :: More routes between these airports
Route: KOGO2J KOGOL DCT EKSOS DCT SALLO M736 RASMU DCT IBGAX DCT DEGED DCT NITMU DCT VAGAS T317 NOVRI P853 RIXEM DCT PIGAX Z205 BADIX BADI1Q
File this flight plan on PilotEdge
Remarks:
Altitude:
(Current/Filed)
22,000ft
Speed:
(Current/Filed)
220kts
Departed: 19-Sep-16 07:36 PM
Arrived: 20-Sep-16 12:02 AM
Distance/Time
Traveled:
1408nm/4:26
Distance/Time
To Go:
Arrived

Flight Plot

Page will automatically refresh every two minutes.

Flight plan parsing failed; only flown route is shown


Map Options




Map Legend


Flown Route
Filed Route
Departure Airport
Arrival Airport
Navaid (VOR, NDB)
Fix

Horizontal Profiles

Position Reports

Time Latitude Longitude Heading Altitude Ground
Speed
19-Sep-16 19:32 50.405798 11.663310 13 22129ft 282kts
19-Sep-16 19:33 50.481130 11.689263 13 22129ft 282kts
19-Sep-16 19:34 50.557824 11.715757 13 22129ft 281kts
19-Sep-16 19:35 50.634383 11.742307 13 22129ft 281kts
19-Sep-16 19:36 50.710873 11.768919 13 22129ft 281kts
19-Sep-16 19:37 50.787359 11.795631 13 22129ft 281kts
19-Sep-16 19:38 50.861960 11.821735 13 22129ft 281kts
19-Sep-16 19:39 50.938395 11.848597 13 22129ft 281kts
19-Sep-16 19:40 51.014763 11.875453 13 22130ft 280kts
19-Sep-16 19:41 51.090640 11.902261 13 22130ft 280kts
19-Sep-16 19:42 51.167003 11.929399 13 22130ft 279kts
19-Sep-16 19:43 51.241111 11.955748 13 22130ft 279kts
19-Sep-16 19:44 51.317274 11.982998 13 22130ft 279kts
19-Sep-16 19:45 51.392637 12.009996 14 22130ft 279kts
19-Sep-16 19:46 51.468349 12.037253 14 22130ft 278kts
19-Sep-16 19:47 51.544173 12.064624 14 22130ft 278kts
19-Sep-16 19:48 51.617947 12.091349 14 22130ft 277kts
19-Sep-16 19:49 51.693381 12.118728 14 22130ft 277kts
19-Sep-16 19:50 51.768773 12.146255 14 22131ft 277kts
19-Sep-16 19:51 51.843826 12.173758 14 22133ft 277kts
19-Sep-16 19:52 51.919082 12.201387 14 22135ft 277kts
19-Sep-16 19:53 51.992642 12.228455 14 22136ft 277kts
19-Sep-16 19:54 52.070497 12.257224 14 22137ft 277kts
19-Sep-16 19:55 52.150014 12.286762 14 22138ft 277kts
19-Sep-16 19:56 52.228723 12.315993 14 22140ft 277kts
19-Sep-16 19:57 52.307278 12.345435 14 22142ft 277kts
19-Sep-16 19:58 52.384579 12.374399 14 22144ft 277kts
19-Sep-16 19:59 52.462950 12.403838 15 22146ft 277kts
19-Sep-16 20:00 52.540506 12.433191 15 22147ft 276kts
19-Sep-16 20:01 52.618138 12.462635 15 22152ft 276kts
19-Sep-16 20:02 52.694682 12.491767 15 22153ft 277kts
19-Sep-16 20:03 52.770735 12.520751 15 22154ft 277kts
19-Sep-16 20:04 52.848153 12.550480 15 22155ft 277kts
19-Sep-16 20:05 52.926473 12.580580 15 22155ft 277kts
19-Sep-16 20:06 53.004775 12.610822 15 22155ft 277kts
19-Sep-16 20:07 53.080882 12.640336 16 22155ft 277kts
19-Sep-16 20:08 53.158298 12.670512 16 22155ft 277kts
19-Sep-16 20:09 53.235535 12.700642 16 22155ft 277kts
19-Sep-16 20:10 53.311977 12.730554 16 22155ft 277kts
19-Sep-16 20:11 53.388840 12.760816 16 22155ft 277kts
19-Sep-16 20:12 53.463068 12.790168 16 22156ft 277kts
19-Sep-16 20:13 53.527471 12.815686 16 22156ft 277kts
19-Sep-16 20:14 53.618247 12.851681 16 22157ft 277kts
19-Sep-16 20:15 53.683445 12.877798 16 22157ft 276kts
19-Sep-16 20:16 53.761537 12.909083 16 22157ft 276kts
19-Sep-16 20:17 53.839187 12.940302 16 22157ft 276kts
19-Sep-16 20:18 53.914875 12.970846 16 22157ft 276kts
19-Sep-16 20:19 53.991092 13.001638 16 22157ft 276kts
19-Sep-16 20:20 54.065951 13.032024 17 22156ft 276kts
19-Sep-16 20:21 54.140681 13.062667 17 22157ft 276kts
19-Sep-16 20:22 54.215661 13.093377 17 22157ft 275kts
19-Sep-16 20:23 54.288437 13.123296 17 22157ft 275kts
19-Sep-16 20:24 54.363551 13.154296 17 22157ft 275kts
19-Sep-16 20:25 54.440673 13.186245 17 22157ft 275kts
19-Sep-16 20:26 54.517408 13.218156 17 22157ft 275kts
19-Sep-16 20:27 54.594128 13.250185 17 22157ft 275kts
19-Sep-16 20:28 54.669823 13.281905 17 22157ft 275kts
19-Sep-16 20:29 54.746360 13.314105 17 22157ft 275kts
19-Sep-16 20:30 54.824622 13.347154 17 22157ft 275kts
19-Sep-16 20:31 54.901094 13.379567 17 22154ft 276kts
19-Sep-16 20:32 54.979900 13.408740 14 22152ft 277kts
19-Sep-16 20:33 55.056144 13.434097 15 22152ft 277kts
19-Sep-16 20:34 55.134656 13.461302 15 22152ft 277kts
19-Sep-16 20:35 55.210280 13.487351 15 22153ft 277kts
19-Sep-16 20:36 55.287610 13.514236 15 22154ft 277kts
19-Sep-16 20:37 55.364655 13.541191 15 22154ft 277kts
19-Sep-16 20:38 55.441053 13.564480 10 22155ft 280kts
19-Sep-16 20:39 55.521245 13.578369 9 22155ft 280kts
19-Sep-16 20:40 55.601555 13.593141 10 22154ft 280kts
19-Sep-16 20:41 55.682127 13.608215 10 22151ft 280kts
19-Sep-16 20:42 55.761926 13.623186 10 22148ft 281kts
19-Sep-16 20:43 55.841521 13.638162 10 22144ft 281kts
19-Sep-16 20:44 55.923030 13.653487 10 22143ft 281kts
19-Sep-16 20:45 56.002023 13.668550 10 22143ft 280kts
19-Sep-16 20:46 56.081535 13.683799 10 22144ft 280kts
19-Sep-16 20:47 56.160191 13.698794 9 22146ft 281kts
19-Sep-16 20:48 56.238301 13.713716 10 22147ft 281kts
19-Sep-16 20:49 56.317580 13.728989 10 22148ft 281kts
19-Sep-16 20:50 56.397431 13.744541 10 22149ft 281kts
19-Sep-16 20:51 56.477006 13.760122 9 22149ft 281kts
19-Sep-16 20:52 56.555981 13.775518 9 22150ft 281kts
19-Sep-16 20:53 56.636290 13.791204 9 22151ft 282kts
19-Sep-16 20:54 56.717404 13.807201 9 22152ft 282kts
19-Sep-16 20:55 56.796514 13.833058 18 22154ft 279kts
19-Sep-16 20:56 56.873757 13.872344 18 22155ft 280kts
19-Sep-16 20:57 56.949400 13.910202 18 22157ft 280kts
19-Sep-16 20:58 57.027907 13.949042 17 22159ft 281kts
19-Sep-16 20:59 57.105902 13.987861 17 22157ft 281kts
19-Sep-16 21:00 57.182789 14.026263 17 22157ft 281kts
19-Sep-16 21:01 57.260665 14.065257 17 22157ft 280kts
19-Sep-16 21:02 57.336829 14.103650 17 22155ft 280kts
19-Sep-16 21:03 57.414020 14.142689 17 22156ft 280kts
19-Sep-16 21:04 57.492325 14.182514 17 22156ft 280kts
19-Sep-16 21:05 57.569928 14.222094 17 22156ft 281kts
19-Sep-16 21:06 57.647687 14.261933 17 22156ft 281kts
19-Sep-16 21:07 57.723656 14.301136 17 22156ft 281kts
19-Sep-16 21:08 57.801387 14.341261 17 22157ft 281kts
19-Sep-16 21:09 57.878367 14.381259 17 22157ft 282kts
19-Sep-16 21:10 57.956034 14.421806 17 22157ft 282kts
19-Sep-16 21:11 58.033392 14.462424 17 22157ft 282kts
19-Sep-16 21:12 58.110229 14.502890 17 22157ft 282kts
19-Sep-16 21:13 58.188552 14.544240 17 22157ft 282kts
19-Sep-16 21:14 58.254121 14.579102 17 22157ft 282kts
19-Sep-16 21:15 58.345479 14.627872 17 22157ft 282kts
19-Sep-16 21:16 58.410318 14.662653 17 22157ft 282kts
19-Sep-16 21:17 58.488696 14.704874 17 22157ft 282kts
19-Sep-16 21:18 58.565340 14.746270 17 22158ft 282kts
19-Sep-16 21:19 58.643401 14.788688 17 22158ft 282kts
19-Sep-16 21:20 58.720846 14.830974 17 22159ft 282kts
19-Sep-16 21:21 58.798849 14.873753 17 22159ft 282kts
19-Sep-16 21:22 58.875133 14.915858 17 22158ft 282kts
19-Sep-16 21:23 58.952272 14.958478 17 22158ft 282kts
19-Sep-16 21:24 59.028994 15.001136 17 22158ft 282kts
19-Sep-16 21:25 59.106242 15.044308 17 22157ft 282kts
19-Sep-16 21:26 59.184100 15.088077 17 22157ft 282kts
19-Sep-16 21:27 59.261481 15.131669 17 22157ft 282kts
19-Sep-16 21:28 59.340104 15.176216 17 22157ft 282kts
19-Sep-16 21:29 59.418870 15.221076 17 22158ft 282kts
19-Sep-16 21:30 59.497107 15.265849 17 22159ft 282kts
19-Sep-16 21:31 59.575866 15.311130 17 22161ft 282kts
19-Sep-16 21:32 59.651869 15.355042 17 22163ft 282kts
19-Sep-16 21:33 59.730348 15.400555 16 22164ft 282kts
19-Sep-16 21:34 59.808829 15.444625 16 22166ft 282kts
19-Sep-16 21:35 59.887148 15.488042 16 22169ft 282kts
19-Sep-16 21:36 59.965537 15.531778 16 22171ft 282kts
19-Sep-16 21:37 60.042128 15.574768 16 22174ft 282kts
19-Sep-16 21:38 60.120256 15.618755 16 22177ft 282kts
19-Sep-16 21:39 60.198247 15.662879 16 22180ft 282kts
19-Sep-16 21:40 60.275715 15.706948 16 22181ft 282kts
19-Sep-16 21:41 60.353366 15.751346 16 22182ft 282kts
19-Sep-16 21:42 60.429342 15.795007 16 22183ft 282kts
19-Sep-16 21:43 60.507606 15.840234 16 22184ft 283kts
19-Sep-16 21:44 60.585575 15.885480 16 22185ft 283kts
19-Sep-16 21:45 60.664199 15.931338 16 22186ft 284kts
19-Sep-16 21:46 60.742273 15.977137 16 22187ft 284kts
19-Sep-16 21:47 60.819721 16.022752 16 22189ft 285kts
19-Sep-16 21:48 60.898963 16.069694 16 22190ft 284kts
19-Sep-16 21:49 60.977318 16.116358 15 22191ft 284kts
19-Sep-16 21:50 61.056950 16.164008 15 22192ft 284kts
19-Sep-16 21:51 61.135380 16.211199 15 22194ft 285kts
19-Sep-16 21:52 61.213130 16.258208 15 22197ft 285kts
19-Sep-16 21:53 61.292030 16.306150 15 22199ft 286kts
19-Sep-16 21:54 61.371119 16.354457 15 22202ft 286kts
19-Sep-16 21:55 61.449711 16.402749 15 22204ft 287kts
19-Sep-16 21:56 61.528912 16.451594 15 22206ft 287kts
19-Sep-16 21:57 61.606724 16.499900 15 22208ft 288kts
19-Sep-16 21:58 61.686650 16.549779 15 22209ft 288kts
19-Sep-16 21:59 61.766233 16.599695 15 22210ft 289kts
19-Sep-16 22:00 61.846000 16.650023 15 22211ft 289kts
19-Sep-16 22:01 61.925306 16.700324 15 22212ft 288kts
19-Sep-16 22:02 62.001457 16.748833 15 22212ft 288kts
19-Sep-16 22:03 62.078407 16.798481 15 22212ft 289kts
19-Sep-16 22:04 62.157098 16.834264 7 22210ft 289kts
19-Sep-16 22:05 62.236756 16.862009 8 22210ft 290kts
19-Sep-16 22:06 62.316134 16.890786 8 22211ft 290kts
19-Sep-16 22:07 62.394191 16.919170 8 22211ft 290kts
19-Sep-16 22:08 62.473958 16.948272 8 22211ft 290kts
19-Sep-16 22:09 62.553700 16.977563 8 22211ft 290kts
19-Sep-16 22:10 62.633249 17.006989 8 22212ft 290kts
19-Sep-16 22:11 62.712896 17.036523 8 22212ft 290kts
19-Sep-16 22:12 62.790638 17.065563 8 22213ft 290kts
19-Sep-16 22:13 62.870421 17.095482 8 22213ft 291kts
19-Sep-16 22:14 62.950462 17.125797 8 22213ft 292kts
19-Sep-16 22:15 63.030551 17.156085 8 22213ft 292kts
19-Sep-16 22:16 63.110575 17.186601 8 22214ft 293kts
19-Sep-16 22:17 63.175461 17.211491 8 22213ft 293kts
19-Sep-16 22:18 63.269584 17.247766 8 22214ft 294kts
19-Sep-16 22:19 63.336840 17.273852 8 22216ft 294kts
19-Sep-16 22:20 63.417552 17.305452 7 22219ft 295kts
19-Sep-16 22:21 63.497927 17.336812 7 22222ft 295kts
19-Sep-16 22:22 63.577220 17.368080 8 22225ft 295kts
19-Sep-16 22:23 63.658583 17.400356 8 22229ft 296kts
19-Sep-16 22:24 63.739463 17.432621 8 22233ft 296kts
19-Sep-16 22:25 63.820186 17.465012 8 22233ft 296kts
19-Sep-16 22:26 63.901232 17.497842 7 22236ft 296kts
19-Sep-16 22:27 63.980554 17.529904 7 22240ft 297kts
19-Sep-16 22:28 64.061959 17.563127 7 22244ft 297kts
19-Sep-16 22:29 64.143513 17.596647 8 22247ft 298kts
19-Sep-16 22:30 64.224900 17.630290 8 22249ft 298kts
19-Sep-16 22:31 64.306863 17.664357 8 22251ft 298kts
19-Sep-16 22:32 64.386651 17.697869 7 22252ft 298kts
19-Sep-16 22:33 64.468603 17.732170 7 22237ft 299kts
19-Sep-16 22:34 64.550313 17.767284 10 22236ft 300kts
19-Sep-16 22:35 64.630115 17.827451 16 22244ft 301kts
19-Sep-16 22:36 64.709676 17.889731 16 22244ft 302kts
19-Sep-16 22:37 64.787698 17.950162 15 22242ft 302kts
19-Sep-16 22:38 64.867425 18.011970 15 22241ft 303kts
19-Sep-16 22:39 64.947433 18.074276 15 22240ft 303kts
19-Sep-16 22:40 65.027432 18.137069 15 22239ft 303kts
19-Sep-16 22:41 65.107167 18.200204 15 22239ft 303kts
19-Sep-16 22:42 65.185427 18.262275 15 22239ft 303kts
19-Sep-16 22:43 65.265339 18.326214 16 22239ft 304kts
19-Sep-16 22:44 65.345801 18.391114 15 22238ft 304kts
19-Sep-16 22:45 65.426185 18.456110 16 22238ft 305kts
19-Sep-16 22:46 65.506370 18.521545 16 22238ft 305kts
19-Sep-16 22:47 65.585159 18.586266 16 22238ft 305kts
19-Sep-16 22:48 65.665490 18.652624 16 22238ft 305kts
19-Sep-16 22:49 65.745998 18.719588 16 22238ft 306kts
19-Sep-16 22:50 65.826222 18.786771 16 22238ft 306kts
19-Sep-16 22:51 65.906732 18.854602 16 22238ft 306kts
19-Sep-16 22:52 65.985232 18.921224 16 22237ft 306kts
19-Sep-16 22:53 66.066086 18.990354 16 22236ft 306kts
19-Sep-16 22:54 66.148999 19.061535 16 22235ft 307kts
19-Sep-16 22:55 66.229986 19.131628 16 22234ft 307kts
19-Sep-16 22:56 66.312096 19.203241 16 22233ft 308kts
19-Sep-16 22:57 66.392987 19.274232 16 22231ft 308kts
19-Sep-16 22:58 66.475556 19.347202 16 22232ft 308kts
19-Sep-16 22:59 66.558416 19.420958 16 22231ft 308kts
19-Sep-16 23:00 66.641557 19.495490 16 22229ft 308kts
19-Sep-16 23:01 66.724379 19.570267 16 22226ft 308kts
19-Sep-16 23:02 66.806116 19.644563 17 22236ft 308kts
19-Sep-16 23:03 66.889860 19.721242 17 22240ft 308kts
19-Sep-16 23:04 66.973437 19.798523 17 22240ft 309kts
19-Sep-16 23:05 67.057471 19.876443 17 22240ft 309kts
19-Sep-16 23:06 67.140857 19.954502 17 22240ft 309kts
19-Sep-16 23:07 67.222946 20.032009 17 22220ft 310kts
19-Sep-16 23:08 67.306921 20.111697 17 22219ft 310kts
19-Sep-16 23:09 67.391486 20.171221 3 22222ft 306kts
19-Sep-16 23:10 67.478970 20.202315 5 22226ft 307kts
19-Sep-16 23:11 67.566597 20.236987 5 22231ft 307kts
19-Sep-16 23:12 67.651966 20.270807 5 22235ft 307kts
19-Sep-16 23:13 67.739063 20.305386 5 22237ft 308kts
19-Sep-16 23:14 67.825681 20.340175 5 22238ft 308kts
19-Sep-16 23:15 67.911568 20.377574 6 22238ft 308kts
19-Sep-16 23:16 67.996668 20.415204 6 22238ft 308kts
19-Sep-16 23:17 68.081140 20.452639 5 22238ft 309kts
19-Sep-16 23:18 68.167395 20.490852 5 22239ft 309kts
19-Sep-16 23:19 68.253642 20.529500 6 22239ft 310kts
19-Sep-16 23:20 68.338481 20.567928 5 22241ft 310kts
19-Sep-16 23:21 68.425138 20.607196 5 22241ft 310kts
19-Sep-16 23:22 68.509698 20.645974 6 22242ft 311kts
19-Sep-16 23:23 68.590360 20.601229 329 22245ft 299kts
19-Sep-16 23:24 68.664701 20.498932 329 22246ft 300kts
19-Sep-16 23:25 68.739661 20.395954 329 22247ft 301kts
19-Sep-16 23:26 68.815076 20.296735 334 22165ft 302kts
19-Sep-16 23:27 68.891820 20.217111 335 21530ft 300kts
19-Sep-16 23:28 68.969732 20.133519 334 20766ft 302kts
19-Sep-16 23:29 69.035522 20.062006 334 20107ft 304kts
19-Sep-16 23:30 69.127474 19.961502 334 19183ft 304kts
19-Sep-16 23:31 69.192325 19.890091 334 18531ft 299kts
19-Sep-16 23:32 69.267403 19.806631 334 17777ft 293kts
19-Sep-16 23:33 69.339611 19.856580 46 17573ft 288kts
19-Sep-16 23:34 69.383594 20.049140 60 16799ft 292kts
19-Sep-16 23:35 69.422571 20.253219 61 15983ft 295kts
19-Sep-16 23:36 69.461564 20.458568 61 15162ft 296kts
19-Sep-16 23:37 69.499765 20.660670 61 14355ft 297kts
19-Sep-16 23:38 69.538801 20.869241 61 13526ft 296kts
19-Sep-16 23:39 69.577111 21.076084 61 12708ft 294kts
19-Sep-16 23:40 69.614966 21.282289 61 11893ft 291kts
19-Sep-16 23:41 69.652443 21.488018 62 11084ft 287kts
19-Sep-16 23:42 69.688305 21.686950 63 10302ft 283kts
19-Sep-16 23:43 69.723867 21.886723 63 9522ft 278kts
19-Sep-16 23:44 69.758531 22.083272 63 8686ft 268kts
19-Sep-16 23:45 69.800575 22.239183 24 8164ft 232kts
19-Sep-16 23:46 69.858273 22.307242 18 7526ft 218kts
19-Sep-16 23:47 69.913489 22.365153 17 6842ft 213kts
19-Sep-16 23:48 69.968941 22.423468 17 6139ft 209kts
19-Sep-16 23:49 70.023079 22.480917 17 5454ft 205kts
19-Sep-16 23:50 70.064317 22.543854 43 5093ft 181kts
19-Sep-16 23:51 70.097254 22.656248 53 5065ft 193kts
19-Sep-16 23:52 70.089763 22.805994 117 4610ft 190kts
19-Sep-16 23:53 70.074991 22.889734 119 4019ft 170kts
19-Sep-16 23:54 70.053197 23.000405 120 3327ft 167kts
19-Sep-16 23:55 70.032760 23.099389 120 2349ft 128kts
19-Sep-16 23:56 70.014641 23.187788 122 1549ft 129kts
19-Sep-16 23:57 69.997491 23.269374 124 761ft 122kts
19-Sep-16 23:58 69.980806 23.349488 124 19ft 107kts
19-Sep-16 23:59 69.977270 23.365079 243 18ft 20kts
20-Sep-16 00:00 69.976952 23.357245 209 17ft 0kts
20-Sep-16 00:01 69.976952 23.357244 209 17ft 0kts
20-Sep-16 00:02 69.976952 23.357244 209 17ft 0kts

Navigation Log

Ident Type
Flight plan parsing failed, navigation log unavailable